ストックホルム/アーランダ の空港の天気 - METARとTAF

ストックホルム・アーランダ空港 ( ESSA / ARN ) - スウェーデン ストックホルム
飛行場実況気象(Metar)
観測時間06/25 14:50 CEST (06/25 12:50 UTC)
風向・風速北北西 6m/s
視程10km以上
天気現象
なし
気温21℃
湿度46%
気圧1015hPa
METARESSA 251250Z 34011KT CAVOK 21/09 Q1015 NOSIG
過去の天気等 Google飛行場航空写真 Wunderground天気予報

過去48時間のMETAR

飛行場予報(TAF)
発表時間: 6/25 13:30 CEST (6/25 11:30 UTC)
予報対象時間: 25日14時 CEST ~ 26日14時 CEST
風向・風速北 8m/s
視程10km以上
なし
25日20時 CEST ~ 25日21時 CEST に徐々に
風向・風速北 3m/s
TAF ESSA 251130Z 2512/2612 36015KT CAVOK
BECMG 2518/2519 36005KT